^^
Saratoga-Weather Station Historical Data
Daily Summary for May 21, 2022 Units:  Metric    English   Both
Daily Weekly Monthly Yearly Custom
  High: Low: Average:
Temperature: 21.8 °C 10.7 °C 16.2 °C
Dew Point: 12 °C 9.1 °C 10.4 °C
Humidity: 91% 48% 71%
Wind Speed: 20.9km/h 0km/h 5.3km/h
Wind Gust: 20.9km/h - -
Wind- - West
Pressure: 1022.7 hPa 1018.3 hPa -
Precipitation: 0.0 mm    
Historical Graphs
 
 
Tabular Data for May 21, 2022
Time Temperature Dew Point Pressure Wind Wind Speed Wind Gust Humidity Rainfall Rate (Hourly) solar
00:04 13.8 °C 11.3 °C 1021.0 hPa West 3.2 km/h 9.7 km/h 85% 0.0 mm 0 W/m2
00:09 13.7 °C 11.2 °C 1021.0 hPa West 3.2 km/h 12.9 km/h 85% 0.0 mm 0 W/m2
00:14 13.6 °C 11.3 °C 1021.0 hPa West 11.1 km/h 11.3 km/h 86% 0.0 mm 0 W/m2
00:19 13.6 °C 11.3 °C 1021.0 hPa West 3.2 km/h 8 km/h 86% 0.0 mm 0 W/m2
00:24 13.5 °C 11.2 °C 1021.0 hPa WNW 6.4 km/h 9.7 km/h 86% 0.0 mm 0 W/m2
00:29 13.4 °C 11.3 °C 1021.0 hPa WSW 7.9 km/h 8 km/h 87% 0.0 mm 0 W/m2
00:34 13.3 °C 11.2 °C 1021.3 hPa West 6.4 km/h 12.9 km/h 87% 0.0 mm 0 W/m2
00:39 13.3 °C 11.2 °C 1021.3 hPa West 9.7 km/h 11.3 km/h 87% 0.0 mm 0 W/m2
00:44 13.2 °C 11.1 °C 1021.3 hPa WSW 4.7 km/h 12.9 km/h 87% 0.0 mm 0 W/m2
00:49 13.2 °C 11.1 °C 1021.3 hPa West 6.4 km/h 14.5 km/h 87% 0.0 mm 0 W/m2
00:54 13.3 °C 11.2 °C 1021.3 hPa West 6.4 km/h 12.9 km/h 87% 0.0 mm 0 W/m2
00:59 13.3 °C 11.2 °C 1021.3 hPa SW 4.7 km/h 14.5 km/h 87% 0.0 mm 0 W/m2
01:04 13.2 °C 11.1 °C 1021.3 hPa WSW 7.9 km/h 11.3 km/h 87% 0.0 mm 0 W/m2
01:09 13.1 °C 11 °C 1021.3 hPa WSW 4.7 km/h 8 km/h 87% 0.0 mm 0 W/m2
01:14 12.9 °C 10.8 °C 1021.3 hPa WSW 4.7 km/h 12.9 km/h 87% 0.0 mm 0 W/m2
01:19 12.8 °C 10.7 °C 1021.3 hPa West 3.2 km/h 4.8 km/h 87% 0.0 mm 0 W/m2
01:24 12.7 °C 10.6 °C 1021.3 hPa West 1.4 km/h 9.7 km/h 87% 0.0 mm 0 W/m2
01:29 12.6 °C 10.7 °C 1021.3 hPa SW 4.7 km/h 9.7 km/h 88% 0.0 mm 0 W/m2
01:34 12.4 °C 10.5 °C 1021.3 hPa West 3.2 km/h 12.9 km/h 88% 0.0 mm 0 W/m2
01:39 12.3 °C 10.4 °C 1021.3 hPa West 4.7 km/h 11.3 km/h 88% 0.0 mm 0 W/m2
01:44 12.2 °C 10.4 °C 1021.3 hPa WSW 6.4 km/h 9.7 km/h 89% 0.0 mm 0 W/m2
01:49 12.2 °C 10.4 °C 1021.7 hPa West 4.7 km/h 11.3 km/h 89% 0.0 mm 0 W/m2
01:54 12.1 °C 10.3 °C 1021.3 hPa West 6.4 km/h 9.7 km/h 89% 0.0 mm 0 W/m2
01:59 12 °C 10.2 °C 1021.3 hPa WSW 4.7 km/h 6.4 km/h 89% 0.0 mm 0 W/m2
02:04 11.9 °C 10.1 °C 1021.7 hPa WSW 4.7 km/h 9.7 km/h 89% 0.0 mm 0 W/m2
02:09 11.8 °C 10.2 °C 1021.7 hPa WSW 3.2 km/h 6.4 km/h 90% 0.0 mm 0 W/m2
02:14 11.8 °C 10.2 °C 1021.7 hPa WNW 3.2 km/h 8 km/h 90% 0.0 mm 0 W/m2
02:19 11.7 °C 10.1 °C 1021.7 hPa West 4.7 km/h 12.9 km/h 90% 0.0 mm 0 W/m2
02:24 11.7 °C 10.1 °C 1021.7 hPa WNW 3.2 km/h 9.7 km/h 90% 0.0 mm 0 W/m2
02:29 11.6 °C 10 °C 1021.7 hPa West 6.4 km/h 12.9 km/h 90% 0.0 mm 0 W/m2
02:34 11.6 °C 10 °C 1021.7 hPa WSW 4.7 km/h 12.9 km/h 90% 0.0 mm 0 W/m2
02:39 11.5 °C 9.9 °C 1021.7 hPa WNW 6.4 km/h 11.3 km/h 90% 0.0 mm 0 W/m2
02:44 11.4 °C 9.8 °C 1021.7 hPa SW 4.7 km/h 19.3 km/h 90% 0.0 mm 0 W/m2
02:49 11.4 °C 9.8 °C 1021.7 hPa WNW 4.7 km/h 9.7 km/h 90% 0.0 mm 0 W/m2
02:54 11.4 °C 9.8 °C 1021.7 hPa NW 14.3 km/h 19.3 km/h 90% 0.0 mm 0 W/m2
02:59 11.3 °C 9.7 °C 1022.0 hPa West 4.7 km/h 12.9 km/h 90% 0.0 mm 0 W/m2
03:04 11.3 °C 9.7 °C 1022.0 hPa WNW 6.4 km/h 16.1 km/h 90% 0.0 mm 0 W/m2
03:09 11.3 °C 9.7 °C 1021.7 hPa West 6.4 km/h 11.3 km/h 90% 0.0 mm 0 W/m2
03:14 11.2 °C 9.6 °C 1021.7 hPa West 6.4 km/h 16.1 km/h 90% 0.0 mm 0 W/m2
03:19 11.2 °C 9.6 °C 1021.7 hPa WNW 6.4 km/h 9.7 km/h 90% 0.0 mm 0 W/m2
03:24 11.2 °C 9.6 °C 1021.7 hPa West 9.7 km/h 11.3 km/h 90% 0.0 mm 0 W/m2
03:29 11.2 °C 9.6 °C 1021.7 hPa West 6.4 km/h 20.9 km/h 90% 0.0 mm 0 W/m2
03:34 11.2 °C 9.6 °C 1021.7 hPa West 9.7 km/h 12.9 km/h 90% 0.0 mm 0 W/m2
03:39 11.2 °C 9.6 °C 1021.7 hPa WSW 7.9 km/h 12.9 km/h 90% 0.0 mm 0 W/m2
03:44 11.1 °C 9.5 °C 1021.7 hPa WNW 4.7 km/h 12.9 km/h 90% 0.0 mm 0 W/m2
03:49 11.1 °C 9.7 °C 1022.0 hPa WNW 4.7 km/h 12.9 km/h 91% 0.0 mm 0 W/m2
03:54 11.1 °C 9.7 °C 1022.0 hPa WSW 6.4 km/h 12.9 km/h 91% 0.0 mm 0 W/m2
03:59 11.1 °C 9.7 °C 1022.0 hPa WNW 6.4 km/h 12.9 km/h 91% 0.0 mm 0 W/m2
04:04 11.1 °C 9.7 °C 1022.0 hPa West 4.7 km/h 12.9 km/h 91% 0.0 mm 0 W/m2
04:09 11.1 °C 9.7 °C 1022.0 hPa NW 7.9 km/h 12.9 km/h 91% 0.0 mm 0 W/m2
04:14 11 °C 9.6 °C 1022.0 hPa WNW 4.7 km/h 11.3 km/h 91% 0.0 mm 0 W/m2
04:19 11 °C 9.6 °C 1022.0 hPa WNW 3.2 km/h 6.4 km/h 91% 0.0 mm 0 W/m2
04:24 10.9 °C 9.5 °C 1022.0 hPa WNW 3.2 km/h 9.7 km/h 91% 0.0 mm 0 W/m2
04:29 10.8 °C 9.4 °C 1022.0 hPa West 4.7 km/h 4.8 km/h 91% 0.0 mm 0 W/m2
04:34 10.8 °C 9.4 °C 1022.0 hPa WNW 3.2 km/h 4.8 km/h 91% 0.0 mm 0 W/m2
04:39 10.8 °C 9.4 °C 1022.0 hPa West 4.7 km/h 6.4 km/h 91% 0.0 mm 0 W/m2
04:44 10.8 °C 9.2 °C 1022.0 hPa NW 7.9 km/h 11.3 km/h 90% 0.0 mm 0 W/m2
04:49 10.8 °C 9.2 °C 1021.7 hPa WNW 4.7 km/h 6.4 km/h 90% 0.0 mm 0 W/m2
04:54 10.8 °C 9.2 °C 1021.7 hPa WNW 4.7 km/h 11.3 km/h 90% 0.0 mm 0 W/m2
04:59 10.9 °C 9.3 °C 1021.7 hPa West 4.7 km/h 11.3 km/h 90% 0.0 mm 0 W/m2
05:04 10.9 °C 9.3 °C 1021.7 hPa WNW 4.7 km/h 9.7 km/h 90% 0.0 mm 0 W/m2
05:09 10.9 °C 9.2 °C 1021.7 hPa WSW 7.9 km/h 9.7 km/h 89% 0.0 mm 0 W/m2
05:14 10.9 °C 9.2 °C 1021.7 hPa NW 6.4 km/h 12.9 km/h 89% 0.0 mm 0 W/m2
05:19 10.9 °C 9.2 °C 1021.7 hPa WSW 6.4 km/h 11.3 km/h 89% 0.0 mm 0 W/m2
05:24 10.9 °C 9.2 °C 1022.0 hPa WNW 7.9 km/h 12.9 km/h 89% 0.0 mm 0 W/m2
05:29 10.9 °C 9.2 °C 1022.0 hPa West 9.7 km/h 11.3 km/h 89% 0.0 mm 0 W/m2
05:34 10.9 °C 9.2 °C 1022.0 hPa SW 7.9 km/h 12.9 km/h 89% 0.0 mm 0 W/m2
05:39 10.9 °C 9.2 °C 1022.0 hPa West 9.7 km/h 12.9 km/h 89% 0.0 mm 0 W/m2
05:44 10.9 °C 9.2 °C 1022.0 hPa West 6.4 km/h 12.9 km/h 89% 0.0 mm 0 W/m2
05:49 10.9 °C 9.2 °C 1022.0 hPa WNW 4.7 km/h 9.7 km/h 89% 0.0 mm 7 W/m2
05:54 10.9 °C 9.2 °C 1022.0 hPa WNW 14.3 km/h 16.1 km/h 89% 0.0 mm 11 W/m2
05:59 10.9 °C 9.2 °C 1022.0 hPa WNW 4.7 km/h 8 km/h 89% 0.0 mm 14 W/m2
06:04 10.8 °C 9.1 °C 1022.0 hPa WNW 6.4 km/h 11.3 km/h 89% 0.0 mm 16 W/m2
06:09 10.8 °C 9.2 °C 1022.0 hPa WNW 6.4 km/h 8 km/h 90% 0.0 mm 19 W/m2
06:14 10.7 °C 9.1 °C 1022.0 hPa WNW 6.4 km/h 11.3 km/h 90% 0.0 mm 19 W/m2
06:19 10.7 °C 9.1 °C 1022.0 hPa WSW 6.4 km/h 11.3 km/h 90% 0.0 mm 21 W/m2
06:24 10.7 °C 9.1 °C 1022.0 hPa WSW 4.7 km/h 14.5 km/h 90% 0.0 mm 23 W/m2
06:29 10.7 °C 9.1 °C 1022.0 hPa NW 7.9 km/h 8 km/h 90% 0.0 mm 30 W/m2
06:34 10.8 °C 9.2 °C 1022.4 hPa WNW 6.4 km/h 9.7 km/h 90% 0.0 mm 35 W/m2
06:39 10.8 °C 9.2 °C 1022.4 hPa West 3.2 km/h 9.7 km/h 90% 0.0 mm 39 W/m2
06:44 10.8 °C 9.4 °C 1022.0 hPa NW 3.2 km/h 11.3 km/h 91% 0.0 mm 39 W/m2
06:49 10.8 °C 9.4 °C 1022.0 hPa West 3.2 km/h 6.4 km/h 91% 0.0 mm 42 W/m2
06:54 10.8 °C 9.4 °C 1022.4 hPa WNW 9.7 km/h 11.3 km/h 91% 0.0 mm 56 W/m2
06:59 10.9 °C 9.5 °C 1022.4 hPa West 3.2 km/h 8 km/h 91% 0.0 mm 54 W/m2
07:04 11.1 °C 9.7 °C 1022.4 hPa WNW 3.2 km/h 12.9 km/h 91% 0.0 mm 46 W/m2
07:09 11.2 °C 9.6 °C 1022.4 hPa North 4.7 km/h 6.4 km/h 90% 0.0 mm 47 W/m2
07:14 11.3 °C 9.7 °C 1022.4 hPa WSW 1.4 km/h 9.7 km/h 90% 0.0 mm 128 W/m2
07:19 11.4 °C 9.8 °C 1022.4 hPa WNW 4.7 km/h 12.9 km/h 90% 0.0 mm 134 W/m2
07:24 11.6 °C 10 °C 1022.4 hPa SW 4.7 km/h 6.4 km/h 90% 0.0 mm 83 W/m2
07:29 11.7 °C 9.9 °C 1022.4 hPa SW 7.9 km/h 11.3 km/h 89% 0.0 mm 149 W/m2
07:34 11.9 °C 10.1 °C 1022.4 hPa West 6.4 km/h 9.7 km/h 89% 0.0 mm 186 W/m2
07:39 12.1 °C 10.2 °C 1022.4 hPa West 3.2 km/h 6.4 km/h 88% 0.0 mm 148 W/m2
07:45 12.2 °C 10.1 °C 1022.4 hPa WSW 3.2 km/h 6.4 km/h 87% 0.0 mm 243 W/m2
07:50 12.4 °C 10.3 °C 1022.4 hPa Calm   6.4 km/h 87% 0.0 mm 209 W/m2
07:55 12.6 °C 10.5 °C 1022.4 hPa WNW 13 km/h 12.9 km/h 87% 0.0 mm 262 W/m2
08:00 12.8 °C 10.5 °C 1022.4 hPa WNW 4.7 km/h 9.7 km/h 86% 0.0 mm 264 W/m2
08:05 13 °C 10.7 °C 1022.4 hPa NNW 3.2 km/h 12.9 km/h 86% 0.0 mm 246 W/m2
08:10 13.2 °C 10.7 °C 1022.4 hPa WSW 3.2 km/h 6.4 km/h 85% 0.0 mm 158 W/m2
08:15 13.4 °C 10.8 °C 1022.4 hPa WNW 1.4 km/h 9.7 km/h 84% 0.0 mm 100 W/m2
08:20 13.8 °C 11.1 °C 1022.4 hPa NNW 1.4 km/h 3.2 km/h 84% 0.0 mm 58 W/m2
08:25 14 °C 11 °C 1022.4 hPa West 6.4 km/h 9.7 km/h 82% 0.0 mm 58 W/m2
08:30 14.1 °C 11.1 °C 1022.4 hPa WNW 1.4 km/h 6.4 km/h 82% 0.0 mm 56 W/m2
08:35 14.1 °C 11.1 °C 1022.4 hPa NW 1.4 km/h 6.4 km/h 82% 0.0 mm 54 W/m2
08:40 14.2 °C 11.2 °C 1022.4 hPa WSW 1.4 km/h 14.5 km/h 82% 0.0 mm 56 W/m2
08:45 14.3 °C 11.1 °C 1022.4 hPa NW 3.2 km/h 4.8 km/h 81% 0.0 mm 54 W/m2
08:50 14.4 °C 11 °C 1022.7 hPa NW 4.7 km/h 11.3 km/h 80% 0.0 mm 56 W/m2
08:55 14.4 °C 11 °C 1022.7 hPa NW 6.4 km/h 14.5 km/h 80% 0.0 mm 54 W/m2
09:00 14.3 °C 10.9 °C 1022.7 hPa West 9.7 km/h 16.1 km/h 80% 0.0 mm 56 W/m2
09:05 14.3 °C 11.3 °C 1022.7 hPa West 4.7 km/h 14.5 km/h 82% 0.0 mm 84 W/m2
09:10 14.4 °C 11.2 °C 1022.7 hPa WNW 1.4 km/h 9.7 km/h 81% 0.0 mm 77 W/m2
09:15 14.7 °C 11.5 °C 1022.7 hPa WNW 6.4 km/h 14.5 km/h 81% 0.0 mm 63 W/m2
09:20 14.8 °C 11.4 °C 1022.7 hPa West 6.4 km/h 11.3 km/h 80% 0.0 mm 62 W/m2
09:25 14.8 °C 11.4 °C 1022.7 hPa WNW 4.7 km/h 12.9 km/h 80% 0.0 mm 91 W/m2
09:30 14.9 °C 11.5 °C 1022.7 hPa SW 3.2 km/h 11.3 km/h 80% 0.0 mm 148 W/m2
09:35 15.1 °C 11.5 °C 1022.7 hPa NW 7.9 km/h 14.5 km/h 79% 0.0 mm 141 W/m2
09:40 15.1 °C 11.5 °C 1022.7 hPa SSW 9.7 km/h 12.9 km/h 79% 0.0 mm 113 W/m2
09:45 15.1 °C 11.7 °C 1022.7 hPa NW 4.7 km/h 12.9 km/h 80% 0.0 mm 116 W/m2
09:50 15.2 °C 11.6 °C 1022.7 hPa WNW 3.2 km/h 12.9 km/h 79% 0.0 mm 123 W/m2
09:55 15.3 °C 11.5 °C 1022.7 hPa NW 4.7 km/h 11.3 km/h 78% 0.0 mm 146 W/m2
10:00 15.6 °C 11.8 °C 1022.7 hPa WNW 1.4 km/h 11.3 km/h 78% 0.0 mm 156 W/m2
10:05 15.9 °C 11.7 °C 1022.7 hPa WNW 7.9 km/h 14.5 km/h 76% 0.0 mm 156 W/m2
10:10 15.9 °C 11.5 °C 1022.7 hPa WSW 4.7 km/h 14.5 km/h 75% 0.0 mm 213 W/m2
10:15 16 °C 11.8 °C 1022.7 hPa WNW 9.7 km/h 16.1 km/h 76% 0.0 mm 392 W/m2
10:20 16.2 °C 11.8 °C 1022.7 hPa WNW 6.4 km/h 12.9 km/h 75% 0.0 mm 735 W/m2
10:25 16.4 °C 12 °C 1022.4 hPa WNW 4.7 km/h 4.8 km/h 75% 0.0 mm 587 W/m2
10:30 16.3 °C 11.5 °C 1022.4 hPa WSW 4.7 km/h 9.7 km/h 73% 0.0 mm 195 W/m2
10:35 16.3 °C 11.7 °C 1022.4 hPa WSW 4.7 km/h 9.7 km/h 74% 0.0 mm 513 W/m2
10:40 16.4 °C 11.8 °C 1022.4 hPa SW 6.4 km/h 11.3 km/h 74% 0.0 mm 513 W/m2
10:45 16.7 °C 11.6 °C 1022.4 hPa WNW 6.4 km/h 11.3 km/h 72% 0.0 mm 765 W/m2
10:50 16.7 °C 11.4 °C 1022.4 hPa WNW 7.9 km/h 14.5 km/h 71% 0.0 mm 715 W/m2
10:55 17 °C 11.5 °C 1022.4 hPa WNW 14.3 km/h 14.5 km/h 70% 0.0 mm 717 W/m2
11:00 17.1 °C 11.4 °C 1022.4 hPa West 4.7 km/h 8 km/h 69% 0.0 mm 701 W/m2
11:05 17.2 °C 11.5 °C 1022.4 hPa West 1.4 km/h 4.8 km/h 69% 0.0 mm 788 W/m2
11:10 17.5 °C 11.7 °C 1022.4 hPa NW 3.2 km/h 8 km/h 69% 0.0 mm 793 W/m2
11:15 17.4 °C 11.2 °C 1022.4 hPa West 9.7 km/h 12.9 km/h 67% 0.0 mm 146 W/m2
11:20 17.3 °C 11.1 °C 1022.4 hPa North 6.4 km/h 9.7 km/h 67% 0.0 mm 828 W/m2
11:25 17.5 °C 10.8 °C 1022.4 hPa SW 9.7 km/h 12.9 km/h 65% 0.0 mm 798 W/m2
11:30 17.4 °C 10.5 °C 1022.4 hPa NNW 4.7 km/h 6.4 km/h 64% 0.0 mm 805 W/m2
11:35 17.6 °C 11.2 °C 1022.4 hPa WNW 6.4 km/h 14.5 km/h 66% 0.0 mm 909 W/m2
11:40 17.8 °C 11.4 °C 1022.4 hPa West 1.4 km/h 4.8 km/h 66% 0.0 mm 835 W/m2
11:45 18 °C 10.9 °C 1022.4 hPa WNW 4.7 km/h 16.1 km/h 63% 0.0 mm 819 W/m2
11:50 18.1 °C 11.2 °C 1022.0 hPa WNW 4.7 km/h 12.9 km/h 64% 0.0 mm 236 W/m2
11:55 18 °C 10.9 °C 1022.4 hPa WSW 4.7 km/h 17.7 km/h 63% 0.0 mm 209 W/m2
12:00 18.1 °C 11.2 °C 1022.4 hPa West 11.1 km/h 11.3 km/h 64% 0.0 mm 916 W/m2
12:05 18.2 °C 10.6 °C 1022.4 hPa WSW 7.9 km/h 17.7 km/h 61% 0.0 mm 599 W/m2
12:10 18.1 °C 11.2 °C 1022.4 hPa WNW 1.4 km/h 8 km/h 64% 0.0 mm 181 W/m2
12:15 18.2 °C 11.3 °C 1022.4 hPa WSW 13 km/h 14.5 km/h 64% 0.0 mm 854 W/m2
12:20 18.4 °C 11.2 °C 1022.4 hPa NNW 4.7 km/h 12.9 km/h 63% 0.0 mm 944 W/m2
12:25 18.4 °C 10.2 °C 1022.0 hPa NW 4.7 km/h 12.9 km/h 59% 0.0 mm 849 W/m2
12:30 18.4 °C 10.5 °C 1022.0 hPa West 11.1 km/h 19.3 km/h 60% 0.0 mm 984 W/m2
12:35 18.5 °C 10.6 °C 1022.0 hPa West 3.2 km/h 8 km/h 60% 0.0 mm 1056 W/m2
12:40 18.8 °C 11.1 °C 1022.0 hPa West 6.4 km/h 11.3 km/h 61% 0.0 mm 232 W/m2
12:45 18.9 °C 10.7 °C 1022.0 hPa SW 7.9 km/h 16.1 km/h 59% 0.0 mm 944 W/m2
12:50 18.9 °C 10.5 °C 1022.0 hPa WNW 7.9 km/h 14.5 km/h 58% 0.0 mm 958 W/m2
12:55 19.2 °C 10.7 °C 1022.0 hPa NNW 4.7 km/h 6.4 km/h 58% 0.0 mm 946 W/m2
13:00 19.4 °C 10.9 °C 1022.0 hPa WNW 4.7 km/h 12.9 km/h 58% 0.0 mm 944 W/m2
13:05 19.6 °C 10.6 °C 1022.0 hPa NW 7.9 km/h 19.3 km/h 56% 0.0 mm 944 W/m2
13:10 19.4 °C 10.7 °C 1022.0 hPa NNW 13 km/h 17.7 km/h 57% 0.0 mm 970 W/m2
13:15 19.3 °C 10.8 °C 1022.0 hPa WNW 6.4 km/h 19.3 km/h 58% 0.0 mm 962 W/m2
13:20 19.4 °C 10.4 °C 1022.0 hPa WNW 3.2 km/h 12.9 km/h 56% 0.0 mm 902 W/m2
13:25 19.4 °C 10.4 °C 1022.0 hPa WSW 4.7 km/h 11.3 km/h 56% 0.0 mm 1013 W/m2
13:30 19.4 °C 10.4 °C 1021.7 hPa WNW 3.2 km/h 16.1 km/h 56% 0.0 mm 211 W/m2
13:35 19.5 °C 10.5 °C 1021.7 hPa WSW 14.3 km/h 14.5 km/h 56% 0.0 mm 990 W/m2
13:40 19.8 °C 10.5 °C 1021.7 hPa WSW 7.9 km/h 19.3 km/h 55% 0.0 mm 807 W/m2
13:45 19.7 °C 10.1 °C 1022.0 hPa WSW 20.9 km/h 20.9 km/h 54% 0.0 mm 976 W/m2
13:50 19.6 °C 10.3 °C 1022.0 hPa WNW 6.4 km/h 17.7 km/h 55% 0.0 mm 926 W/m2
13:55 19.7 °C 10.1 °C 1021.7 hPa WNW 3.2 km/h 12.9 km/h 54% 0.0 mm 965 W/m2
14:00 19.8 °C 10.5 °C 1022.0 hPa West 14.3 km/h 19.3 km/h 55% 0.0 mm 956 W/m2
14:05 19.9 °C 10.3 °C 1021.7 hPa WSW 3.2 km/h 16.1 km/h 54% 0.0 mm 953 W/m2
14:10 20 °C 10.1 °C 1022.0 hPa NW 13 km/h 20.9 km/h 53% 0.0 mm 965 W/m2
14:15 19.9 °C 10.3 °C 1021.7 hPa NW 4.7 km/h 11.3 km/h 54% 0.0 mm 875 W/m2
14:20 20.1 °C 10.2 °C 1021.7 hPa WNW 14.3 km/h 20.9 km/h 53% 0.0 mm 891 W/m2
14:25 19.9 °C 10.3 °C 1021.3 hPa West 6.4 km/h 14.5 km/h 54% 0.0 mm 911 W/m2
14:30 20.3 °C 10.4 °C 1021.3 hPa West 4.7 km/h 19.3 km/h 53% 0.0 mm 944 W/m2
14:35 20.4 °C 10.2 °C 1021.7 hPa West 9.7 km/h 19.3 km/h 52% 0.0 mm 452 W/m2
14:40 20.2 °C 10.3 °C 1021.3 hPa NNW 4.7 km/h 14.5 km/h 53% 0.0 mm 396 W/m2
14:45 20.1 °C 9.9 °C 1021.3 hPa West 13 km/h 16.1 km/h 52% 0.0 mm 297 W/m2
14:50 19.8 °C 10.2 °C 1021.3 hPa West 4.7 km/h 9.7 km/h 54% 0.0 mm 302 W/m2
14:55 19.8 °C 10.2 °C 1021.3 hPa West 6.4 km/h 14.5 km/h 54% 0.0 mm 410 W/m2
15:00 19.8 °C 10.5 °C 1021.3 hPa WNW 4.7 km/h 9.7 km/h 55% 0.0 mm 817 W/m2
15:05 20.1 °C 10.2 °C 1021.3 hPa West 6.4 km/h 11.3 km/h 53% 0.0 mm 364 W/m2
15:10 20.1 °C 9.9 °C 1021.3 hPa West 6.4 km/h 14.5 km/h 52% 0.0 mm 311 W/m2
15:15 20.1 °C 10.2 °C 1021.3 hPa West 3.2 km/h 12.9 km/h 53% 0.0 mm 480 W/m2
15:20 20 °C 10.4 °C 1021.3 hPa West 3.2 km/h 12.9 km/h 54% 0.0 mm 636 W/m2
15:25 20.3 °C 10.7 °C 1021.0 hPa WNW 16.3 km/h 16.1 km/h 54% 0.0 mm 919 W/m2
15:30 20.8 °C 10.9 °C 1021.0 hPa WSW 6.4 km/h 12.9 km/h 53% 0.0 mm 984 W/m2
15:35 20.9 °C 10.7 °C 1021.0 hPa West 4.7 km/h 16.1 km/h 52% 0.0 mm 930 W/m2
15:40 21 °C 10.5 °C 1021.0 hPa West 6.4 km/h 14.5 km/h 51% 0.0 mm 898 W/m2
15:45 21.1 °C 10.6 °C 1021.0 hPa NW 6.4 km/h 11.3 km/h 51% 0.0 mm 865 W/m2
15:50 21.1 °C 10.6 °C 1021.0 hPa WSW 6.4 km/h 17.7 km/h 51% 0.0 mm 837 W/m2
15:55 21.3 °C 10.8 °C 1020.7 hPa West 3.2 km/h 14.5 km/h 51% 0.0 mm 691 W/m2
16:00 21.3 °C 10.5 °C 1020.7 hPa WNW 6.4 km/h 14.5 km/h 50% 0.0 mm 791 W/m2
16:05 21.4 °C 10.2 °C 1020.7 hPa NNW 9.7 km/h 16.1 km/h 49% 0.0 mm 817 W/m2
16:10 21.4 °C 10.5 °C 1020.7 hPa West 4.7 km/h 16.1 km/h 50% 0.0 mm 784 W/m2
16:15 21.6 °C 10.4 °C 1020.3 hPa NNE 3.2 km/h 11.3 km/h 49% 0.0 mm 786 W/m2
16:20 21.5 °C 10.6 °C 1020.7 hPa ESE 4.7 km/h 12.9 km/h 50% 0.0 mm 659 W/m2
16:25 21.4 °C 10.5 °C 1020.3 hPa WSW 7.9 km/h 12.9 km/h 50% 0.0 mm 756 W/m2
16:30 21.4 °C 10.5 °C 1020.3 hPa NNW 7.9 km/h 9.7 km/h 50% 0.0 mm 751 W/m2
16:35 21.4 °C 10.2 °C 1020.3 hPa NW 4.7 km/h 17.7 km/h 49% 0.0 mm 726 W/m2
16:40 21.5 °C 10 °C 1020.3 hPa West 14.3 km/h 14.5 km/h 48% 0.0 mm 770 W/m2
16:45 21.3 °C 10.2 °C 1020.3 hPa NNW 3.2 km/h 6.4 km/h 49% 0.0 mm 649 W/m2
16:50 21.4 °C 10.2 °C 1020.0 hPa NNW 13 km/h 14.5 km/h 49% 0.0 mm 606 W/m2
16:55 21.4 °C 10.2 °C 1020.0 hPa WNW 14.3 km/h 16.1 km/h 49% 0.0 mm 610 W/m2
17:00 21.3 °C 10.5 °C 1020.0 hPa WSW 4.7 km/h 11.3 km/h 50% 0.0 mm 497 W/m2
17:05 21.2 °C 10.4 °C 1019.6 hPa WNW 3.2 km/h 6.4 km/h 50% 0.0 mm 485 W/m2
17:10 21.3 °C 10.5 °C 1019.6 hPa West 9.7 km/h 16.1 km/h 50% 0.0 mm 378 W/m2
17:15 21.2 °C 10.1 °C 1019.6 hPa SW 6.4 km/h 12.9 km/h 49% 0.0 mm 497 W/m2
17:20 21.3 °C 10.2 °C 1019.6 hPa WNW 16.3 km/h 16.1 km/h 49% 0.0 mm 436 W/m2
17:25 21.3 °C 10.2 °C 1019.6 hPa West 4.7 km/h 14.5 km/h 49% 0.0 mm 475 W/m2
17:30 21.3 °C 10.5 °C 1019.6 hPa NW 3.2 km/h 9.7 km/h 50% 0.0 mm 515 W/m2
17:35 21.3 °C 10.2 °C 1019.6 hPa West 6.4 km/h 9.7 km/h 49% 0.0 mm 403 W/m2
17:40 21.3 °C 10.5 °C 1019.6 hPa West 9.7 km/h 14.5 km/h 50% 0.0 mm 504 W/m2
17:45 21.4 °C 10.5 °C 1019.6 hPa West 13 km/h 16.1 km/h 50% 0.0 mm 429 W/m2
17:50 21.3 °C 10.5 °C 1019.6 hPa WNW 7.9 km/h 11.3 km/h 50% 0.0 mm 429 W/m2
17:55 21.3 °C 10.2 °C 1019.6 hPa NNW 3.2 km/h 11.3 km/h 49% 0.0 mm 457 W/m2
18:00 21.4 °C 10.2 °C 1019.3 hPa WNW 4.7 km/h 11.3 km/h 49% 0.0 mm 513 W/m2
18:05 21.6 °C 10.4 °C 1019.3 hPa WNW 9.7 km/h 14.5 km/h 49% 0.0 mm 503 W/m2
18:10 21.6 °C 10.4 °C 1019.3 hPa West 6.4 km/h 14.5 km/h 49% 0.0 mm 490 W/m2
18:15 21.7 °C 10.8 °C 1019.3 hPa NW 3.2 km/h 12.9 km/h 50% 0.0 mm 475 W/m2
18:20 21.8 °C 10.6 °C 1019.3 hPa NW 3.2 km/h 6.4 km/h 49% 0.0 mm 330 W/m2
18:25 21.8 °C 10.6 °C 1019.0 hPa NW 9.7 km/h 9.7 km/h 49% 0.0 mm 399 W/m2
18:30 21.8 °C 10.6 °C 1019.0 hPa West 3.2 km/h 14.5 km/h 49% 0.0 mm 346 W/m2
18:35 21.8 °C 10.6 °C 1019.0 hPa WNW 1.4 km/h 12.9 km/h 49% 0.0 mm 385 W/m2
18:40 21.7 °C 10.5 °C 1019.0 hPa NNW 7.9 km/h 11.3 km/h 49% 0.0 mm 376 W/m2
18:45 21.7 °C 10.2 °C 1019.0 hPa NNW 1.4 km/h 8 km/h 48% 0.0 mm 325 W/m2
18:50 21.7 °C 10.8 °C 1019.0 hPa West 11.1 km/h 12.9 km/h 50% 0.0 mm 88 W/m2
18:55 21.6 °C 10.7 °C 1019.0 hPa West 6.4 km/h 11.3 km/h 50% 0.0 mm 81 W/m2
19:00 21.5 °C 10.6 °C 1019.0 hPa NW 7.9 km/h 11.3 km/h 50% 0.0 mm 76 W/m2
19:05 21.5 °C 10.3 °C 1019.0 hPa WNW 3.2 km/h 8 km/h 49% 0.0 mm 72 W/m2
19:10 21.6 °C 10.7 °C 1018.6 hPa WNW 3.2 km/h 9.7 km/h 50% 0.0 mm 69 W/m2
19:15 21.5 °C 10.9 °C 1019.0 hPa NNW 4.7 km/h 8 km/h 51% 0.0 mm 67 W/m2
19:20 21.4 °C 10.5 °C 1019.0 hPa WSW 4.7 km/h 6.4 km/h 50% 0.0 mm 63 W/m2
19:25 21.2 °C 10.7 °C 1019.0 hPa NW 6.4 km/h 12.9 km/h 51% 0.0 mm 62 W/m2
19:30 20.9 °C 10.4 °C 1019.0 hPa West 6.4 km/h 11.3 km/h 51% 0.0 mm 60 W/m2
19:35 20.9 °C 10.7 °C 1019.0 hPa WSW 6.4 km/h 9.7 km/h 52% 0.0 mm 58 W/m2
19:40 20.8 °C 10.6 °C 1018.6 hPa NW 6.4 km/h 6.4 km/h 52% 0.0 mm 54 W/m2
19:45 20.8 °C 10.9 °C 1018.6 hPa West 1.4 km/h 6.4 km/h 53% 0.0 mm 53 W/m2
19:50 20.8 °C 10.9 °C 1018.6 hPa NW 3.2 km/h 6.4 km/h 53% 0.0 mm 49 W/m2
19:55 20.7 °C 10.8 °C 1018.6 hPa West 4.7 km/h 11.3 km/h 53% 0.0 mm 47 W/m2
20:00 20.5 °C 10.6 °C 1018.6 hPa West 6.4 km/h 6.4 km/h 53% 0.0 mm 44 W/m2
20:06 20.3 °C 10.7 °C 1018.6 hPa WSW 1.4 km/h 4.8 km/h 54% 0.0 mm 42 W/m2
20:11 20.2 °C 10.6 °C 1018.3 hPa West 4.7 km/h 8 km/h 54% 0.0 mm 40 W/m2
20:16 20.1 °C 10.8 °C 1018.3 hPa WSW 1.4 km/h 9.7 km/h 55% 0.0 mm 37 W/m2
20:21 19.9 °C 10.6 °C 1018.3 hPa West 4.7 km/h 6.4 km/h 55% 0.0 mm 35 W/m2
20:26 19.7 °C 10.9 °C 1018.3 hPa West 4.7 km/h 6.4 km/h 57% 0.0 mm 33 W/m2
20:31 19.6 °C 10.8 °C 1018.3 hPa West 4.7 km/h 9.7 km/h 57% 0.0 mm 32 W/m2
20:36 19.4 °C 10.7 °C 1018.3 hPa West 4.7 km/h 6.4 km/h 57% 0.0 mm 30 W/m2
20:41 19.4 °C 10.7 °C 1018.6 hPa WNW 3.2 km/h 8 km/h 57% 0.0 mm 26 W/m2
20:46 19.3 °C 10.6 °C 1018.3 hPa West 1.4 km/h 6.4 km/h 57% 0.0 mm 25 W/m2
20:51 19.3 °C 10.6 °C 1018.3 hPa NW 3.2 km/h 8 km/h 57% 0.0 mm 25 W/m2
20:56 19.2 °C 11 °C 1018.3 hPa WNW 3.2 km/h 4.8 km/h 59% 0.0 mm 23 W/m2
21:01 18.9 °C 11 °C 1018.3 hPa West 3.2 km/h 3.2 km/h 60% 0.0 mm 14 W/m2
21:06 18.7 °C 11 °C 1018.3 hPa West 1.4 km/h 4.8 km/h 61% 0.0 mm 11 W/m2
21:11 18.4 °C 10.7 °C 1018.3 hPa West 3.2 km/h 3.2 km/h 61% 0.0 mm 9 W/m2
21:16 18.2 °C 10.8 °C 1018.3 hPa Calm   3.2 km/h 62% 0.0 mm 5 W/m2
21:21 18 °C 10.9 °C 1018.3 hPa Calm   1.6 km/h 63% 0.0 mm 0 W/m2
21:26 17.8 °C 10.9 °C 1018.6 hPa Calm   3.2 km/h 64% 0.0 mm 0 W/m2
21:31 17.6 °C 10.9 °C 1018.6 hPa Calm   1.6 km/h 65% 0.0 mm 0 W/m2
21:36 17.3 °C 10.9 °C 1018.6 hPa Calm   3.2 km/h 66% 0.0 mm 0 W/m2
21:41 17.1 °C 10.9 °C 1018.6 hPa Calm   3.2 km/h 67% 0.0 mm 0 W/m2
21:46 16.8 °C 10.9 °C 1018.6 hPa Calm     68% 0.0 mm 0 W/m2
21:51 16.7 °C 10.8 °C 1018.6 hPa West 1.4 km/h 3.2 km/h 68% 0.0 mm 0 W/m2
21:56 16.4 °C 10.7 °C 1018.6 hPa Calm   1.6 km/h 69% 0.0 mm 0 W/m2
22:01 16.3 °C 10.6 °C 1018.6 hPa West 1.4 km/h 3.2 km/h 69% 0.0 mm 0 W/m2
22:06 16.2 °C 10.3 °C 1018.6 hPa Calm   4.8 km/h 68% 0.0 mm 0 W/m2
22:11 16.2 °C 10.5 °C 1018.6 hPa West 1.4 km/h 1.6 km/h 69% 0.0 mm 0 W/m2
22:16 16.1 °C 10.4 °C 1018.6 hPa Calm   4.8 km/h 69% 0.0 mm 0 W/m2
22:21 16 °C 10.3 °C 1018.6 hPa West 1.4 km/h 3.2 km/h 69% 0.0 mm 0 W/m2
22:26 15.9 °C 10.4 °C 1018.6 hPa West 1.4 km/h 3.2 km/h 70% 0.0 mm 0 W/m2
22:31 15.8 °C 10.3 °C 1018.6 hPa West 1.4 km/h 3.2 km/h 70% 0.0 mm 0 W/m2
22:36 15.7 °C 10.2 °C 1018.6 hPa West 3.2 km/h 3.2 km/h 70% 0.0 mm 0 W/m2
22:41 15.7 °C 10.2 °C 1019.0 hPa Calm   4.8 km/h 70% 0.0 mm 0 W/m2
22:46 15.6 °C 10.1 °C 1019.0 hPa Calm   1.6 km/h 70% 0.0 mm 0 W/m2
22:51 15.6 °C 10.1 °C 1018.6 hPa WSW 1.4 km/h 3.2 km/h 70% 0.0 mm 0 W/m2
22:56 15.6 °C 10.1 °C 1019.0 hPa Calm   1.6 km/h 70% 0.0 mm 0 W/m2
23:01 15.6 °C 10.1 °C 1019.0 hPa WSW 3.2 km/h 3.2 km/h 70% 0.0 mm 0 W/m2
23:06 15.4 °C 10 °C 1019.0 hPa Calm   3.2 km/h 70% 0.0 mm 0 W/m2
23:11 15.4 °C 10 °C 1018.6 hPa SW 1.4 km/h 3.2 km/h 70% 0.0 mm 0 W/m2
23:16 15.3 °C 10.1 °C 1019.0 hPa Calm     71% 0.0 mm 0 W/m2
23:21 15.2 °C 10 °C 1018.6 hPa Calm     71% 0.0 mm 0 W/m2
23:26 15.1 °C 9.9 °C 1018.6 hPa Calm     71% 0.0 mm 0 W/m2
23:31 15 °C 10 °C 1018.6 hPa Calm     72% 0.0 mm 0 W/m2
23:36 14.8 °C 10 °C 1018.3 hPa Calm     73% 0.0 mm 0 W/m2
23:41 14.7 °C 9.9 °C 1018.3 hPa Calm     73% 0.0 mm 0 W/m2
23:46 14.6 °C 10 °C 1018.6 hPa Calm     74% 0.0 mm 0 W/m2
23:51 14.4 °C 9.8 °C 1018.6 hPa Calm     74% 0.0 mm 0 W/m2
23:56 14.3 °C 9.7 °C 1018.6 hPa Calm     74% 0.0 mm 0 W/m2
Juneau County Weather
Compliments of Weather Underground - 4 mb